Main page
METAR-TAF:

METAR-TAF

Airports :

South Texas Regional Airport at Hondo

Hondo, Texas, United States

latitude: 29-21-34N, longitude: 099-10-27W, elevation: 928 ft

Current weather observation

The report was made 1 hour and 7 minutes ago, at 12:51 UTC
Wind 10 mph from the South/Southeast
Temperature 79°F
Humidity 84%
Pressure 29.82 in. Hg
Visibility: 10 miles
Scattered clouds at a height of 1500 ft
Broken clouds at a height of 2000 ft
Overcast at a height of 3600 ft

METAR: KHDO 171251Z AUTO 15009KT 10SM SCT015 BKN020 OVC036 26/23 A2982 RMK AO2 SLP080 T02610233 PWINO $

Time: 08:58 (13:58 UTC)


TAF: missing

Weather observations and forecasts of more than 4000 airports (METAR and TAF reports).

The available stations are represented by yellow and red dots on the map.

Hover mouse over dot to see the name of the station.

Then click to see weather observations and forecasts.

To change the map : click on the green buttons with a black cross to zoom in, on the green button with a dash to zoom out, or on the green arrows for adjacent maps.


METAR-TAF: